sensor_id;sensor_type;location;lat;lon;timestamp;P1;durP1;ratioP1;P2;durP2;ratioP2
16029;SDS011;34770;49.272;11.070;2023-08-08T00:00:45;3.65;;;3.30;;
16029;SDS011;34770;49.272;11.070;2023-08-08T00:03:11;4.47;;;4.07;;
16029;SDS011;34770;49.272;11.070;2023-08-08T00:05:36;7.22;;;4.07;;
16029;SDS011;34770;49.272;11.070;2023-08-08T00:08:02;6.10;;;3.92;;
16029;SDS011;34770;49.272;11.070;2023-08-08T00:10:27;4.68;;;3.55;;
16029;SDS011;34770;49.272;11.070;2023-08-08T00:12:52;3.58;;;3.28;;
16029;SDS011;34770;49.272;11.070;2023-08-08T00:15:18;7.78;;;4.15;;
16029;SDS011;34770;49.272;11.070;2023-08-08T00:17:43;6.43;;;3.20;;
16029;SDS011;34770;49.272;11.070;2023-08-08T00:20:09;5.10;;;3.60;;
16029;SDS011;34770;49.272;11.070;2023-08-08T00:22:35;3.78;;;3.33;;
16029;SDS011;34770;49.272;11.070;2023-08-08T00:25:00;3.38;;;3.08;;
16029;SDS011;34770;49.272;11.070;2023-08-08T00:27:26;3.92;;;3.53;;
16029;SDS011;34770;49.272;11.070;2023-08-08T00:29:51;3.90;;;3.50;;
16029;SDS011;34770;49.272;11.070;2023-08-08T00:32:18;4.60;;;3.75;;
16029;SDS011;34770;49.272;11.070;2023-08-08T00:34:43;4.22;;;3.83;;
16029;SDS011;34770;49.272;11.070;2023-08-08T00:37:09;3.72;;;3.42;;
16029;SDS011;34770;49.272;11.070;2023-08-08T00:39:34;3.83;;;3.53;;
16029;SDS011;34770;49.272;11.070;2023-08-08T00:42:00;3.53;;;3.22;;
16029;SDS011;34770;49.272;11.070;2023-08-08T00:44:25;4.80;;;3.65;;
16029;SDS011;34770;49.272;11.070;2023-08-08T00:46:50;5.72;;;3.80;;
16029;SDS011;34770;49.272;11.070;2023-08-08T00:49:16;6.18;;;3.17;;
16029;SDS011;34770;49.272;11.070;2023-08-08T00:51:41;3.10;;;2.85;;
16029;SDS011;34770;49.272;11.070;2023-08-08T00:54:07;4.32;;;3.10;;
16029;SDS011;34770;49.272;11.070;2023-08-08T00:56:33;3.78;;;3.05;;
16029;SDS011;34770;49.272;11.070;2023-08-08T00:59:00;5.40;;;3.42;;
16029;SDS011;34770;49.272;11.070;2023-08-08T01:01:26;4.55;;;3.20;;
16029;SDS011;34770;49.272;11.070;2023-08-08T01:03:52;3.55;;;2.97;;
16029;SDS011;34770;49.272;11.070;2023-08-08T01:09:00;4.72;;;2.60;;
16029;SDS011;34770;49.272;11.070;2023-08-08T01:11:30;2.58;;;2.38;;
16029;SDS011;34770;49.272;11.070;2023-08-08T01:13:58;2.50;;;2.30;;
16029;SDS011;34770;49.272;11.070;2023-08-08T01:16:24;2.45;;;2.25;;
16029;SDS011;34770;49.272;11.070;2023-08-08T01:18:51;3.22;;;2.50;;
16029;SDS011;34770;49.272;11.070;2023-08-08T01:21:17;3.17;;;2.88;;
16029;SDS011;34770;49.272;11.070;2023-08-08T01:23:46;3.40;;;2.80;;
16029;SDS011;34770;49.272;11.070;2023-08-08T01:26:18;2.85;;;2.65;;
16029;SDS011;34770;49.272;11.070;2023-08-08T01:28:45;2.83;;;2.35;;
16029;SDS011;34770;49.272;11.070;2023-08-08T01:31:11;2.30;;;2.10;;
16029;SDS011;34770;49.272;11.070;2023-08-08T01:33:36;2.80;;;2.47;;
16029;SDS011;34770;49.272;11.070;2023-08-08T01:36:21;2.65;;;2.45;;
16029;SDS011;34770;49.272;11.070;2023-08-08T01:38:52;2.15;;;2.00;;
16029;SDS011;34770;49.272;11.070;2023-08-08T01:41:24;3.13;;;2.38;;
16029;SDS011;34770;49.272;11.070;2023-08-08T01:43:50;2.83;;;2.47;;
16029;SDS011;34770;49.272;11.070;2023-08-08T01:46:17;3.10;;;2.30;;
16029;SDS011;34770;49.272;11.070;2023-08-08T01:48:46;5.53;;;2.30;;
16029;SDS011;34770;49.272;11.070;2023-08-08T01:51:12;2.28;;;1.90;;
16029;SDS011;34770;49.272;11.070;2023-08-08T01:53:37;2.15;;;1.90;;
16029;SDS011;34770;49.272;11.070;2023-08-08T01:56:02;2.50;;;2.30;;
16029;SDS011;34770;49.272;11.070;2023-08-08T01:58:28;2.00;;;1.90;;
16029;SDS011;34770;49.272;11.070;2023-08-08T02:00:53;2.65;;;2.45;;
16029;SDS011;34770;49.272;11.070;2023-08-08T02:03:19;2.45;;;1.92;;
16029;SDS011;34770;49.272;11.070;2023-08-08T02:05:44;2.30;;;2.00;;
16029;SDS011;34770;49.272;11.070;2023-08-08T02:08:09;2.50;;;2.30;;
16029;SDS011;34770;49.272;11.070;2023-08-08T02:10:35;2.70;;;2.50;;
16029;SDS011;34770;49.272;11.070;2023-08-08T02:13:00;3.00;;;2.08;;
16029;SDS011;34770;49.272;11.070;2023-08-08T02:15:25;2.78;;;2.53;;
16029;SDS011;34770;49.272;11.070;2023-08-08T02:17:52;2.17;;;2.05;;
16029;SDS011;34770;49.272;11.070;2023-08-08T02:20:17;2.63;;;2.00;;
16029;SDS011;34770;49.272;11.070;2023-08-08T02:22:43;2.30;;;2.10;;
16029;SDS011;34770;49.272;11.070;2023-08-08T02:25:08;9.75;;;2.47;;
16029;SDS011;34770;49.272;11.070;2023-08-08T02:27:33;2.05;;;1.92;;
16029;SDS011;34770;49.272;11.070;2023-08-08T02:29:59;2.35;;;2.05;;
16029;SDS011;34770;49.272;11.070;2023-08-08T02:32:24;4.50;;;2.08;;
16029;SDS011;34770;49.272;11.070;2023-08-08T02:34:50;2.47;;;2.10;;
16029;SDS011;34770;49.272;11.070;2023-08-08T02:37:15;2.50;;;1.92;;
16029;SDS011;34770;49.272;11.070;2023-08-08T02:39:42;2.05;;;1.95;;
16029;SDS011;34770;49.272;11.070;2023-08-08T02:42:08;2.50;;;2.28;;
16029;SDS011;34770;49.272;11.070;2023-08-08T02:44:34;2.47;;;2.25;;
16029;SDS011;34770;49.272;11.070;2023-08-08T02:46:59;2.65;;;2.40;;
16029;SDS011;34770;49.272;11.070;2023-08-08T02:49:24;4.95;;;2.67;;
16029;SDS011;34770;49.272;11.070;2023-08-08T02:51:50;2.45;;;2.22;;
16029;SDS011;34770;49.272;11.070;2023-08-08T02:54:15;2.88;;;2.30;;
16029;SDS011;34770;49.272;11.070;2023-08-08T02:56:40;9.10;;;2.78;;
16029;SDS011;34770;49.272;11.070;2023-08-08T02:59:06;3.25;;;2.20;;
16029;SDS011;34770;49.272;11.070;2023-08-08T03:01:31;2.38;;;2.05;;
16029;SDS011;34770;49.272;11.070;2023-08-08T03:03:56;2.33;;;2.10;;
16029;SDS011;34770;49.272;11.070;2023-08-08T03:06:22;3.70;;;2.47;;
16029;SDS011;34770;49.272;11.070;2023-08-08T03:08:47;2.33;;;2.20;;
16029;SDS011;34770;49.272;11.070;2023-08-08T03:11:12;3.40;;;2.45;;
16029;SDS011;34770;49.272;11.070;2023-08-08T03:13:38;3.25;;;2.10;;
16029;SDS011;34770;49.272;11.070;2023-08-08T03:16:03;3.67;;;2.22;;
16029;SDS011;34770;49.272;11.070;2023-08-08T03:18:29;2.17;;;2.03;;
16029;SDS011;34770;49.272;11.070;2023-08-08T03:20:54;4.45;;;1.83;;
16029;SDS011;34770;49.272;11.070;2023-08-08T03:23:19;3.00;;;2.38;;
16029;SDS011;34770;49.272;11.070;2023-08-08T03:25:48;3.30;;;2.40;;
16029;SDS011;34770;49.272;11.070;2023-08-08T03:28:13;2.92;;;2.30;;
16029;SDS011;34770;49.272;11.070;2023-08-08T03:30:39;2.63;;;2.42;;
16029;SDS011;34770;49.272;11.070;2023-08-08T03:33:04;3.60;;;3.00;;
16029;SDS011;34770;49.272;11.070;2023-08-08T03:35:30;3.75;;;2.60;;
16029;SDS011;34770;49.272;11.070;2023-08-08T03:37:55;2.55;;;2.05;;
16029;SDS011;34770;49.272;11.070;2023-08-08T03:40:20;2.72;;;2.00;;
16029;SDS011;34770;49.272;11.070;2023-08-08T03:42:46;3.67;;;2.20;;
16029;SDS011;34770;49.272;11.070;2023-08-08T03:45:11;8.90;;;2.17;;
16029;SDS011;34770;49.272;11.070;2023-08-08T03:47:37;1.88;;;1.77;;
16029;SDS011;34770;49.272;11.070;2023-08-08T03:50:03;3.08;;;2.55;;
16029;SDS011;34770;49.272;11.070;2023-08-08T03:52:29;2.25;;;2.10;;
16029;SDS011;34770;49.272;11.070;2023-08-08T03:54:55;2.30;;;2.10;;
16029;SDS011;34770;49.272;11.070;2023-08-08T03:57:20;3.67;;;2.88;;
16029;SDS011;34770;49.272;11.070;2023-08-08T03:59:46;3.60;;;2.20;;
16029;SDS011;34770;49.272;11.070;2023-08-08T04:02:11;7.20;;;2.65;;
16029;SDS011;34770;49.272;11.070;2023-08-08T04:04:36;6.05;;;2.58;;
16029;SDS011;34770;49.272;11.070;2023-08-08T04:07:03;2.83;;;2.50;;
16029;SDS011;34770;49.272;11.070;2023-08-08T04:09:29;7.50;;;3.05;;
16029;SDS011;34770;49.272;11.070;2023-08-08T04:11:54;5.22;;;2.53;;
16029;SDS011;34770;49.272;11.070;2023-08-08T04:14:19;2.63;;;2.42;;
16029;SDS011;34770;49.272;11.070;2023-08-08T04:16:45;2.90;;;2.70;;
16029;SDS011;34770;49.272;11.070;2023-08-08T04:19:10;3.15;;;2.85;;
16029;SDS011;34770;49.272;11.070;2023-08-08T04:21:35;2.53;;;2.33;;
16029;SDS011;34770;49.272;11.070;2023-08-08T04:24:01;4.15;;;2.47;;
16029;SDS011;34770;49.272;11.070;2023-08-08T04:26:26;3.58;;;2.45;;
16029;SDS011;34770;49.272;11.070;2023-08-08T04:28:51;5.55;;;2.17;;
16029;SDS011;34770;49.272;11.070;2023-08-08T04:31:17;2.95;;;2.35;;
16029;SDS011;34770;49.272;11.070;2023-08-08T04:33:42;3.47;;;2.45;;
16029;SDS011;34770;49.272;11.070;2023-08-08T04:36:08;3.35;;;2.97;;
16029;SDS011;34770;49.272;11.070;2023-08-08T04:38:33;2.88;;;2.58;;
16029;SDS011;34770;49.272;11.070;2023-08-08T04:40:59;3.35;;;2.38;;
16029;SDS011;34770;49.272;11.070;2023-08-08T04:43:25;3.00;;;2.70;;
16029;SDS011;34770;49.272;11.070;2023-08-08T04:45:52;4.35;;;2.90;;
16029;SDS011;34770;49.272;11.070;2023-08-08T04:48:18;3.03;;;2.72;;
16029;SDS011;34770;49.272;11.070;2023-08-08T04:50:43;4.07;;;2.35;;
16029;SDS011;34770;49.272;11.070;2023-08-08T04:53:11;3.33;;;2.63;;
16029;SDS011;34770;49.272;11.070;2023-08-08T04:55:36;5.20;;;3.30;;
16029;SDS011;34770;49.272;11.070;2023-08-08T04:58:02;2.80;;;2.60;;
16029;SDS011;34770;49.272;11.070;2023-08-08T05:00:27;2.95;;;2.72;;
16029;SDS011;34770;49.272;11.070;2023-08-08T05:02:53;3.17;;;2.90;;
16029;SDS011;34770;49.272;11.070;2023-08-08T05:05:18;4.13;;;2.60;;
16029;SDS011;34770;49.272;11.070;2023-08-08T05:07:44;4.00;;;3.17;;
16029;SDS011;34770;49.272;11.070;2023-08-08T05:10:09;2.83;;;2.60;;
16029;SDS011;34770;49.272;11.070;2023-08-08T05:12:34;3.00;;;2.70;;
16029;SDS011;34770;49.272;11.070;2023-08-08T05:15:00;5.75;;;2.78;;
16029;SDS011;34770;49.272;11.070;2023-08-08T05:17:25;3.10;;;2.65;;
16029;SDS011;34770;49.272;11.070;2023-08-08T05:19:50;4.47;;;2.75;;
16029;SDS011;34770;49.272;11.070;2023-08-08T05:22:16;2.75;;;2.55;;
16029;SDS011;34770;49.272;11.070;2023-08-08T05:24:41;3.80;;;2.15;;
16029;SDS011;34770;49.272;11.070;2023-08-08T05:27:06;3.38;;;2.30;;
16029;SDS011;34770;49.272;11.070;2023-08-08T05:29:32;4.80;;;2.90;;
16029;SDS011;34770;49.272;11.070;2023-08-08T05:31:57;2.95;;;2.58;;
16029;SDS011;34770;49.272;11.070;2023-08-08T05:34:23;3.72;;;2.42;;
16029;SDS011;34770;49.272;11.070;2023-08-08T05:36:49;2.30;;;2.10;;
16029;SDS011;34770;49.272;11.070;2023-08-08T05:39:15;6.50;;;2.10;;
16029;SDS011;34770;49.272;11.070;2023-08-08T05:41:40;3.53;;;2.17;;
16029;SDS011;34770;49.272;11.070;2023-08-08T05:44:05;2.10;;;2.00;;
16029;SDS011;34770;49.272;11.070;2023-08-08T05:46:31;2.72;;;2.53;;
16029;SDS011;34770;49.272;11.070;2023-08-08T05:48:56;3.08;;;2.70;;
16029;SDS011;34770;49.272;11.070;2023-08-08T05:51:22;2.40;;;2.20;;
16029;SDS011;34770;49.272;11.070;2023-08-08T05:53:47;3.08;;;2.10;;
16029;SDS011;34770;49.272;11.070;2023-08-08T05:56:13;3.05;;;2.20;;
16029;SDS011;34770;49.272;11.070;2023-08-08T05:58:38;4.22;;;2.08;;
16029;SDS011;34770;49.272;11.070;2023-08-08T06:01:04;1.92;;;1.83;;
16029;SDS011;34770;49.272;11.070;2023-08-08T06:03:34;1.60;;;1.50;;
16029;SDS011;34770;49.272;11.070;2023-08-08T06:06:00;2.83;;;1.70;;
16029;SDS011;34770;49.272;11.070;2023-08-08T06:08:26;2.35;;;2.03;;
16029;SDS011;34770;49.272;11.070;2023-08-08T06:10:51;2.00;;;1.90;;
16029;SDS011;34770;49.272;11.070;2023-08-08T06:13:17;3.60;;;2.03;;
16029;SDS011;34770;49.272;11.070;2023-08-08T06:15:42;2.35;;;2.15;;
16029;SDS011;34770;49.272;11.070;2023-08-08T06:18:07;3.90;;;2.22;;
16029;SDS011;34770;49.272;11.070;2023-08-08T06:20:33;2.30;;;2.00;;
16029;SDS011;34770;49.272;11.070;2023-08-08T06:22:58;2.78;;;2.10;;
16029;SDS011;34770;49.272;11.070;2023-08-08T06:25:24;3.08;;;1.90;;
16029;SDS011;34770;49.272;11.070;2023-08-08T06:27:50;5.10;;;2.20;;
16029;SDS011;34770;49.272;11.070;2023-08-08T06:30:16;2.13;;;1.70;;
16029;SDS011;34770;49.272;11.070;2023-08-08T06:32:42;4.05;;;1.98;;
16029;SDS011;34770;49.272;11.070;2023-08-08T06:35:10;1.95;;;1.77;;
16029;SDS011;34770;49.272;11.070;2023-08-08T06:37:35;2.80;;;2.00;;
16029;SDS011;34770;49.272;11.070;2023-08-08T06:40:04;1.90;;;1.70;;
16029;SDS011;34770;49.272;11.070;2023-08-08T06:42:37;2.20;;;1.75;;
16029;SDS011;34770;49.272;11.070;2023-08-08T06:45:03;3.13;;;1.63;;
16029;SDS011;34770;49.272;11.070;2023-08-08T06:47:29;4.85;;;2.03;;
16029;SDS011;34770;49.272;11.070;2023-08-08T06:49:54;2.75;;;1.58;;
16029;SDS011;34770;49.272;11.070;2023-08-08T06:52:21;3.72;;;1.58;;
16029;SDS011;34770;49.272;11.070;2023-08-08T06:54:47;2.67;;;1.98;;
16029;SDS011;34770;49.272;11.070;2023-08-08T06:57:13;2.47;;;1.80;;
16029;SDS011;34770;49.272;11.070;2023-08-08T06:59:38;2.17;;;1.83;;
16029;SDS011;34770;49.272;11.070;2023-08-08T07:02:04;2.55;;;1.70;;
16029;SDS011;34770;49.272;11.070;2023-08-08T07:04:30;2.47;;;1.77;;
16029;SDS011;34770;49.272;11.070;2023-08-08T07:06:56;1.42;;;1.33;;
16029;SDS011;34770;49.272;11.070;2023-08-08T07:09:21;2.15;;;1.85;;
16029;SDS011;34770;49.272;11.070;2023-08-08T07:11:50;3.72;;;1.73;;
16029;SDS011;34770;49.272;11.070;2023-08-08T07:14:18;2.10;;;1.80;;
16029;SDS011;34770;49.272;11.070;2023-08-08T07:16:46;2.45;;;1.60;;
16029;SDS011;34770;49.272;11.070;2023-08-08T07:19:13;3.15;;;1.90;;
16029;SDS011;34770;49.272;11.070;2023-08-08T07:21:44;3.08;;;2.22;;
16029;SDS011;34770;49.272;11.070;2023-08-08T07:24:13;2.65;;;1.90;;
16029;SDS011;34770;49.272;11.070;2023-08-08T07:26:38;2.58;;;1.92;;
16029;SDS011;34770;49.272;11.070;2023-08-08T07:29:04;3.03;;;1.85;;
16029;SDS011;34770;49.272;11.070;2023-08-08T07:31:31;3.90;;;1.60;;
16029;SDS011;34770;49.272;11.070;2023-08-08T07:33:57;2.15;;;1.70;;
16029;SDS011;34770;49.272;11.070;2023-08-08T07:36:22;2.25;;;1.35;;
16029;SDS011;34770;49.272;11.070;2023-08-08T07:38:48;2.13;;;1.92;;
16029;SDS011;34770;49.272;11.070;2023-08-08T07:41:13;1.70;;;1.60;;
16029;SDS011;34770;49.272;11.070;2023-08-08T07:43:39;7.43;;;1.60;;
16029;SDS011;34770;49.272;11.070;2023-08-08T07:46:05;1.77;;;1.67;;
16029;SDS011;34770;49.272;11.070;2023-08-08T07:48:30;2.60;;;1.50;;
16029;SDS011;34770;49.272;11.070;2023-08-08T07:50:56;1.75;;;1.30;;
16029;SDS011;34770;49.272;11.070;2023-08-08T07:53:21;3.28;;;1.58;;
16029;SDS011;34770;49.272;11.070;2023-08-08T07:55:47;2.88;;;1.70;;
16029;SDS011;34770;49.272;11.070;2023-08-08T07:58:12;1.60;;;1.45;;
16029;SDS011;34770;49.272;11.070;2023-08-08T08:00:38;3.15;;;1.52;;
16029;SDS011;34770;49.272;11.070;2023-08-08T08:03:03;2.17;;;1.40;;
16029;SDS011;34770;49.272;11.070;2023-08-08T08:05:34;1.52;;;1.42;;
16029;SDS011;34770;49.272;11.070;2023-08-08T08:08:16;4.57;;;1.50;;
16029;SDS011;34770;49.272;11.070;2023-08-08T08:10:44;2.45;;;1.77;;
16029;SDS011;34770;49.272;11.070;2023-08-08T08:13:14;2.60;;;1.40;;
16029;SDS011;34770;49.272;11.070;2023-08-08T08:15:39;4.30;;;1.75;;
16029;SDS011;34770;49.272;11.070;2023-08-08T08:18:05;2.08;;;1.60;;
16029;SDS011;34770;49.272;11.070;2023-08-08T08:20:32;2.10;;;1.23;;
16029;SDS011;34770;49.272;11.070;2023-08-08T08:22:57;1.38;;;1.27;;
16029;SDS011;34770;49.272;11.070;2023-08-08T08:25:22;2.10;;;1.50;;
16029;SDS011;34770;49.272;11.070;2023-08-08T08:27:48;2.80;;;1.45;;
16029;SDS011;34770;49.272;11.070;2023-08-08T08:30:16;2.28;;;1.42;;
16029;SDS011;34770;49.272;11.070;2023-08-08T08:32:45;2.22;;;1.48;;
16029;SDS011;34770;49.272;11.070;2023-08-08T08:35:10;1.83;;;1.42;;
16029;SDS011;34770;49.272;11.070;2023-08-08T08:37:38;2.47;;;1.83;;
16029;SDS011;34770;49.272;11.070;2023-08-08T08:40:03;1.50;;;1.40;;
16029;SDS011;34770;49.272;11.070;2023-08-08T08:42:32;2.63;;;1.35;;
16029;SDS011;34770;49.272;11.070;2023-08-08T08:44:59;1.95;;;1.20;;
16029;SDS011;34770;49.272;11.070;2023-08-08T08:47:28;2.10;;;1.40;;
16029;SDS011;34770;49.272;11.070;2023-08-08T08:49:55;2.45;;;1.40;;
16029;SDS011;34770;49.272;11.070;2023-08-08T08:52:22;6.28;;;1.92;;
16029;SDS011;34770;49.272;11.070;2023-08-08T08:54:49;1.27;;;1.10;;
16029;SDS011;34770;49.272;11.070;2023-08-08T08:57:16;3.75;;;1.17;;
16029;SDS011;34770;49.272;11.070;2023-08-08T08:59:42;1.90;;;1.60;;
16029;SDS011;34770;49.272;11.070;2023-08-08T09:02:08;1.95;;;1.27;;
16029;SDS011;34770;49.272;11.070;2023-08-08T09:04:35;3.15;;;1.60;;
16029;SDS011;34770;49.272;11.070;2023-08-08T09:07:01;2.88;;;1.45;;
16029;SDS011;34770;49.272;11.070;2023-08-08T09:09:31;1.67;;;1.25;;
16029;SDS011;34770;49.272;11.070;2023-08-08T09:11:57;3.38;;;1.55;;
16029;SDS011;34770;49.272;11.070;2023-08-08T09:14:23;2.55;;;1.20;;
16029;SDS011;34770;49.272;11.070;2023-08-08T09:16:51;1.40;;;1.30;;
16029;SDS011;34770;49.272;11.070;2023-08-08T09:19:22;1.98;;;1.10;;
16029;SDS011;34770;49.272;11.070;2023-08-08T09:21:48;2.38;;;1.25;;
16029;SDS011;34770;49.272;11.070;2023-08-08T09:24:14;2.10;;;1.58;;
16029;SDS011;34770;49.272;11.070;2023-08-08T09:26:40;2.28;;;1.50;;
16029;SDS011;34770;49.272;11.070;2023-08-08T09:29:06;1.63;;;1.20;;
16029;SDS011;34770;49.272;11.070;2023-08-08T09:31:34;2.95;;;1.55;;
16029;SDS011;34770;49.272;11.070;2023-08-08T09:34:00;1.40;;;1.20;;
16029;SDS011;34770;49.272;11.070;2023-08-08T09:36:27;1.33;;;1.23;;
16029;SDS011;34770;49.272;11.070;2023-08-08T09:38:53;1.42;;;1.30;;
16029;SDS011;34770;49.272;11.070;2023-08-08T09:41:20;3.33;;;1.42;;
16029;SDS011;34770;49.272;11.070;2023-08-08T09:43:50;1.15;;;1.05;;
16029;SDS011;34770;49.272;11.070;2023-08-08T09:46:17;1.30;;;1.20;;
16029;SDS011;34770;49.272;11.070;2023-08-08T09:48:43;1.50;;;1.40;;
16029;SDS011;34770;49.272;11.070;2023-08-08T09:51:09;3.78;;;1.48;;
16029;SDS011;34770;49.272;11.070;2023-08-08T09:53:36;2.47;;;1.20;;
16029;SDS011;34770;49.272;11.070;2023-08-08T09:56:04;1.90;;;1.15;;
16029;SDS011;34770;49.272;11.070;2023-08-08T09:58:31;2.58;;;1.75;;
16029;SDS011;34770;49.272;11.070;2023-08-08T10:00:57;4.00;;;1.20;;
16029;SDS011;34770;49.272;11.070;2023-08-08T10:03:23;5.55;;;1.55;;
16029;SDS011;34770;49.272;11.070;2023-08-08T10:05:49;1.70;;;1.23;;
16029;SDS011;34770;49.272;11.070;2023-08-08T10:08:15;3.05;;;1.20;;
16029;SDS011;34770;49.272;11.070;2023-08-08T10:10:41;3.25;;;1.35;;
16029;SDS011;34770;49.272;11.070;2023-08-08T10:13:10;1.40;;;1.30;;
16029;SDS011;34770;49.272;11.070;2023-08-08T10:15:38;2.85;;;1.08;;
16029;SDS011;34770;49.272;11.070;2023-08-08T10:18:05;1.85;;;1.00;;
16029;SDS011;34770;49.272;11.070;2023-08-08T10:20:32;1.85;;;1.40;;
16029;SDS011;34770;49.272;11.070;2023-08-08T10:22:59;2.17;;;1.40;;
16029;SDS011;34770;49.272;11.070;2023-08-08T10:28:05;1.08;;;1.00;;
16029;SDS011;34770;49.272;11.070;2023-08-08T10:30:41;2.50;;;1.30;;
16029;SDS011;34770;49.272;11.070;2023-08-08T10:35:59;1.40;;;1.30;;
16029;SDS011;34770;49.272;11.070;2023-08-08T10:38:26;4.25;;;1.45;;
16029;SDS011;34770;49.272;11.070;2023-08-08T10:41:03;1.58;;;1.20;;
16029;SDS011;34770;49.272;11.070;2023-08-08T10:43:29;2.45;;;1.60;;
16029;SDS011;34770;49.272;11.070;2023-08-08T10:45:59;1.80;;;1.38;;
16029;SDS011;34770;49.272;11.070;2023-08-08T10:48:26;1.88;;;1.40;;
16029;SDS011;34770;49.272;11.070;2023-08-08T10:51:02;2.72;;;1.10;;
16029;SDS011;34770;49.272;11.070;2023-08-08T10:53:30;4.13;;;1.33;;
16029;SDS011;34770;49.272;11.070;2023-08-08T10:55:58;4.90;;;1.40;;
16029;SDS011;34770;49.272;11.070;2023-08-08T10:58:33;1.13;;;1.02;;
16029;SDS011;34770;49.272;11.070;2023-08-08T11:01:01;1.70;;;1.10;;
16029;SDS011;34770;49.272;11.070;2023-08-08T11:03:26;1.98;;;1.40;;
16029;SDS011;34770;49.272;11.070;2023-08-08T11:05:54;2.00;;;1.38;;
16029;SDS011;34770;49.272;11.070;2023-08-08T11:08:25;1.50;;;1.40;;
16029;SDS011;34770;49.272;11.070;2023-08-08T11:10:53;2.55;;;1.40;;
16029;SDS011;34770;49.272;11.070;2023-08-08T11:13:19;3.47;;;1.40;;
16029;SDS011;34770;49.272;11.070;2023-08-08T11:15:45;2.15;;;1.52;;
16029;SDS011;34770;49.272;11.070;2023-08-08T11:18:11;2.10;;;1.45;;
16029;SDS011;34770;49.272;11.070;2023-08-08T11:20:37;1.38;;;1.27;;
16029;SDS011;34770;49.272;11.070;2023-08-08T11:23:03;2.00;;;1.48;;
16029;SDS011;34770;49.272;11.070;2023-08-08T11:25:30;1.60;;;1.38;;
16029;SDS011;34770;49.272;11.070;2023-08-08T11:27:56;3.05;;;1.40;;
16029;SDS011;34770;49.272;11.070;2023-08-08T11:30:23;4.60;;;1.50;;
16029;SDS011;34770;49.272;11.070;2023-08-08T11:32:53;2.75;;;1.75;;
16029;SDS011;34770;49.272;11.070;2023-08-08T11:35:21;1.17;;;1.00;;
16029;SDS011;34770;49.272;11.070;2023-08-08T11:37:47;1.70;;;1.23;;
16029;SDS011;34770;49.272;11.070;2023-08-08T11:40:14;1.33;;;1.20;;
16029;SDS011;34770;49.272;11.070;2023-08-08T11:42:41;3.30;;;1.30;;
16029;SDS011;34770;49.272;11.070;2023-08-08T11:45:08;1.98;;;1.45;;
16029;SDS011;34770;49.272;11.070;2023-08-08T11:47:34;4.18;;;1.33;;
16029;SDS011;34770;49.272;11.070;2023-08-08T11:50:04;2.47;;;1.30;;
16029;SDS011;34770;49.272;11.070;2023-08-08T11:52:29;2.38;;;1.35;;
16029;SDS011;34770;49.272;11.070;2023-08-08T11:54:55;2.28;;;1.13;;
16029;SDS011;34770;49.272;11.070;2023-08-08T11:57:25;1.80;;;1.00;;
16029;SDS011;34770;49.272;11.070;2023-08-08T11:59:52;2.92;;;1.38;;
16029;SDS011;34770;49.272;11.070;2023-08-08T12:02:22;2.35;;;1.45;;
16029;SDS011;34770;49.272;11.070;2023-08-08T12:04:48;4.05;;;1.50;;
16029;SDS011;34770;49.272;11.070;2023-08-08T12:07:14;1.73;;;1.40;;
16029;SDS011;34770;49.272;11.070;2023-08-08T12:09:39;1.27;;;1.17;;
16029;SDS011;34770;49.272;11.070;2023-08-08T12:12:05;1.50;;;1.17;;
16029;SDS011;34770;49.272;11.070;2023-08-08T12:14:36;2.28;;;1.20;;
16029;SDS011;34770;49.272;11.070;2023-08-08T12:17:03;3.40;;;1.45;;
16029;SDS011;34770;49.272;11.070;2023-08-08T12:19:29;1.85;;;1.10;;
16029;SDS011;34770;49.272;11.070;2023-08-08T12:21:54;1.30;;;1.20;;
16029;SDS011;34770;49.272;11.070;2023-08-08T12:24:20;4.03;;;1.33;;
16029;SDS011;34770;49.272;11.070;2023-08-08T12:26:45;1.83;;;1.60;;
16029;SDS011;34770;49.272;11.070;2023-08-08T12:29:11;2.50;;;1.20;;
16029;SDS011;34770;49.272;11.070;2023-08-08T12:31:37;1.52;;;1.25;;
16029;SDS011;34770;49.272;11.070;2023-08-08T12:34:03;1.48;;;1.13;;
16029;SDS011;34770;49.272;11.070;2023-08-08T12:36:28;2.47;;;1.33;;
16029;SDS011;34770;49.272;11.070;2023-08-08T12:38:54;1.95;;;1.40;;
16029;SDS011;34770;49.272;11.070;2023-08-08T12:41:19;5.30;;;1.17;;
16029;SDS011;34770;49.272;11.070;2023-08-08T12:43:45;1.50;;;1.40;;
16029;SDS011;34770;49.272;11.070;2023-08-08T12:46:13;1.88;;;1.52;;
16029;SDS011;34770;49.272;11.070;2023-08-08T12:48:38;3.53;;;1.30;;
16029;SDS011;34770;49.272;11.070;2023-08-08T12:51:04;5.13;;;1.17;;
16029;SDS011;34770;49.272;11.070;2023-08-08T12:53:30;3.42;;;1.63;;
16029;SDS011;34770;49.272;11.070;2023-08-08T12:55:55;1.40;;;1.30;;
16029;SDS011;34770;49.272;11.070;2023-08-08T12:58:20;1.42;;;1.10;;
16029;SDS011;34770;49.272;11.070;2023-08-08T13:00:46;3.15;;;1.20;;
16029;SDS011;34770;49.272;11.070;2023-08-08T13:03:11;1.83;;;1.33;;
16029;SDS011;34770;49.272;11.070;2023-08-08T13:05:38;1.20;;;0.90;;
16029;SDS011;34770;49.272;11.070;2023-08-08T13:08:03;1.98;;;1.60;;
16029;SDS011;34770;49.272;11.070;2023-08-08T13:10:29;2.15;;;1.20;;
16029;SDS011;34770;49.272;11.070;2023-08-08T13:12:55;3.05;;;1.33;;
16029;SDS011;34770;49.272;11.070;2023-08-08T13:15:21;1.20;;;1.10;;
16029;SDS011;34770;49.272;11.070;2023-08-08T13:17:46;2.13;;;1.25;;
16029;SDS011;34770;49.272;11.070;2023-08-08T13:20:12;1.40;;;1.30;;
16029;SDS011;34770;49.272;11.070;2023-08-08T13:22:37;1.38;;;1.27;;
16029;SDS011;34770;49.272;11.070;2023-08-08T13:25:03;1.90;;;1.30;;
16029;SDS011;34770;49.272;11.070;2023-08-08T13:27:30;3.40;;;1.40;;
16029;SDS011;34770;49.272;11.070;2023-08-08T13:29:55;1.58;;;1.20;;
16029;SDS011;34770;49.272;11.070;2023-08-08T13:32:21;1.20;;;1.10;;
16029;SDS011;34770;49.272;11.070;2023-08-08T13:34:46;2.25;;;1.48;;
16029;SDS011;34770;49.272;11.070;2023-08-08T13:37:12;1.88;;;1.20;;
16029;SDS011;34770;49.272;11.070;2023-08-08T13:39:37;2.72;;;1.20;;
16029;SDS011;34770;49.272;11.070;2023-08-08T13:42:02;1.58;;;1.20;;
16029;SDS011;34770;49.272;11.070;2023-08-08T13:44:28;2.05;;;1.40;;
16029;SDS011;34770;49.272;11.070;2023-08-08T13:46:53;4.32;;;1.38;;
16029;SDS011;34770;49.272;11.070;2023-08-08T13:49:20;2.40;;;1.40;;
16029;SDS011;34770;49.272;11.070;2023-08-08T13:51:45;1.27;;;1.08;;
16029;SDS011;34770;49.272;11.070;2023-08-08T13:54:11;2.00;;;1.40;;
16029;SDS011;34770;49.272;11.070;2023-08-08T13:56:36;1.40;;;1.23;;
16029;SDS011;34770;49.272;11.070;2023-08-08T13:59:01;3.40;;;1.67;;
16029;SDS011;34770;49.272;11.070;2023-08-08T14:01:27;1.52;;;1.42;;
16029;SDS011;34770;49.272;11.070;2023-08-08T14:03:52;1.85;;;1.25;;
16029;SDS011;34770;49.272;11.070;2023-08-08T14:06:18;1.45;;;1.25;;
16029;SDS011;34770;49.272;11.070;2023-08-08T14:08:45;2.67;;;1.40;;
16029;SDS011;34770;49.272;11.070;2023-08-08T14:11:10;1.50;;;1.02;;
16029;SDS011;34770;49.272;11.070;2023-08-08T14:13:36;3.78;;;1.13;;
16029;SDS011;34770;49.272;11.070;2023-08-08T14:16:02;2.28;;;1.10;;
16029;SDS011;34770;49.272;11.070;2023-08-08T14:18:27;1.27;;;1.17;;
16029;SDS011;34770;49.272;11.070;2023-08-08T14:20:53;1.50;;;1.20;;
16029;SDS011;34770;49.272;11.070;2023-08-08T14:23:19;1.50;;;1.40;;
16029;SDS011;34770;49.272;11.070;2023-08-08T14:25:44;2.47;;;1.10;;
16029;SDS011;34770;49.272;11.070;2023-08-08T14:28:09;1.23;;;1.13;;
16029;SDS011;34770;49.272;11.070;2023-08-08T14:30:35;2.55;;;1.00;;
16029;SDS011;34770;49.272;11.070;2023-08-08T14:33:00;1.20;;;1.10;;
16029;SDS011;34770;49.272;11.070;2023-08-08T14:35:26;0.82;;;0.82;;